createdAt,value
2023-02-23T00:01:54.600Z,99103.16
2023-02-23T00:04:23.586Z,99110.13
2023-02-23T00:06:53.631Z,99104.88
2023-02-23T00:09:24.084Z,99100.88
2023-02-23T00:11:53.253Z,99096.53
2023-02-23T00:14:20.600Z,99099.63
2023-02-23T00:16:47.313Z,99103.13
2023-02-23T00:19:14.117Z,99097.66
2023-02-23T00:21:41.773Z,99097.34
2023-02-23T00:24:10.985Z,99104.38
2023-02-23T00:26:39.510Z,99098.00
2023-02-23T00:29:09.436Z,99097.66
2023-02-23T00:31:38.707Z,99094.94
2023-02-23T00:34:06.095Z,99096.75
2023-02-23T00:36:34.599Z,99094.69
2023-02-23T00:39:17.342Z,99098.22
2023-02-23T00:41:46.459Z,99093.91
2023-02-23T00:44:15.353Z,99097.66
2023-02-23T00:46:43.653Z,99096.41
2023-02-23T00:49:12.913Z,99097.56
2023-02-23T00:51:40.010Z,99100.16
2023-02-23T00:54:08.049Z,99096.97
2023-02-23T00:56:34.982Z,99093.09
2023-02-23T00:59:01.833Z,99093.44
2023-02-23T01:01:28.451Z,99089.13
2023-02-23T01:03:55.006Z,99095.72
2023-02-23T01:06:22.469Z,99095.25
2023-02-23T01:08:52.138Z,99096.72
2023-02-23T01:11:21.284Z,99091.13
2023-02-23T01:13:50.073Z,99087.50
2023-02-23T01:16:18.961Z,99089.78
2023-02-23T01:18:46.279Z,99098.66
2023-02-23T01:21:22.927Z,99094.94
2023-02-23T01:23:51.117Z,99079.69
2023-02-23T01:26:23.439Z,99087.44
2023-02-23T01:28:51.270Z,99083.78
2023-02-23T01:31:19.103Z,99082.66
2023-02-23T01:33:46.155Z,99078.75
2023-02-23T01:36:13.336Z,99075.25
2023-02-23T01:38:41.169Z,99086.97
2023-02-23T01:41:09.131Z,99075.56
2023-02-23T01:43:54.317Z,99081.03
2023-02-23T01:46:20.958Z,99079.47
2023-02-23T01:48:48.688Z,99074.31
2023-02-23T01:51:22.846Z,99074.66
2023-02-23T01:54:00.186Z,99074.66
2023-02-23T01:56:31.920Z,99071.47
2023-02-23T01:59:01.873Z,99067.13
2023-02-23T02:01:30.245Z,99065.22
2023-02-23T02:04:00.355Z,99065.06
2023-02-23T02:06:28.868Z,99067.34
2023-02-23T02:08:59.986Z,99066.09
2023-02-23T02:11:30.837Z,99064.16
2023-02-23T02:14:03.790Z,99057.59
2023-02-23T02:16:42.478Z,99054.84
2023-02-23T02:19:18.716Z,99059.81
2023-02-23T02:22:04.882Z,99055.53
2023-02-23T02:25:12.753Z,99055.28
2023-02-23T02:27:51.473Z,99057.53
2023-02-23T02:30:46.263Z,99062.06
2023-02-23T02:33:53.623Z,99062.75
2023-02-23T02:36:51.008Z,99064.09
2023-02-23T02:39:35.667Z,99059.16
2023-02-23T02:42:43.726Z,99053.59
2023-02-23T02:45:27.134Z,99062.44
2023-02-23T02:48:18.405Z,99059.72
2023-02-23T02:50:50.733Z,99059.72
2023-02-23T02:53:33.934Z,99068.91
2023-02-23T02:56:05.483Z,99069.56
2023-02-23T02:58:33.590Z,99067.50
2023-02-23T03:01:26.580Z,99069.31
2023-02-23T03:04:12.173Z,99068.06
2023-02-23T03:07:23.034Z,99071.31
2023-02-23T03:10:16.911Z,99072.31
2023-02-23T03:13:14.020Z,99071.50
2023-02-23T03:16:08.351Z,99073.78
2023-02-23T03:19:12.146Z,99078.63
2023-02-23T03:22:12.196Z,99076.44
2023-02-23T03:25:15.697Z,99079.16
2023-02-23T03:28:10.775Z,99081.28
2023-02-23T03:31:06.932Z,99071.50
2023-02-23T03:34:03.457Z,99085.16
2023-02-23T03:36:55.224Z,99079.22
2023-02-23T03:39:48.998Z,99078.75
2023-02-23T03:42:38.580Z,99080.53
2023-02-23T03:45:29.985Z,99085.53
2023-02-23T03:48:18.265Z,99083.00
2023-02-23T03:51:10.746Z,99090.84
2023-02-23T03:54:08.212Z,99091.19
2023-02-23T03:56:57.184Z,99081.28
2023-02-23T03:59:48.656Z,99090.22
2023-02-23T04:02:36.948Z,99096.03
2023-02-23T04:05:29.389Z,99092.03
2023-02-23T04:08:17.244Z,99094.75
2023-02-23T04:11:10.392Z,99093.16
2023-02-23T04:13:40.201Z,99095.41
2023-02-23T04:16:11.477Z,99099.28
2023-02-23T04:18:39.707Z,99100.41
2023-02-23T04:21:07.261Z,99099.59
2023-02-23T04:23:35.058Z,99106.50
2023-02-23T04:26:01.732Z,99103.31
2023-02-23T04:28:29.488Z,99106.50
2023-02-23T04:30:56.225Z,99095.94
2023-02-23T04:33:24.977Z,99109.88
2023-02-23T04:35:53.923Z,99095.78
2023-02-23T04:38:21.106Z,99104.13
2023-02-23T04:40:47.948Z,99100.91
2023-02-23T04:43:15.072Z,99103.31
2023-02-23T04:45:42.178Z,99104.91
2023-02-23T04:48:08.792Z,99105.69
2023-02-23T04:50:35.766Z,99104.91
2023-02-23T04:53:02.345Z,99103.78
2023-02-23T04:55:29.039Z,99106.66
2023-02-23T04:58:01.270Z,99109.69
2023-02-23T05:00:29.461Z,99119.47
2023-02-23T05:02:57.200Z,99116.75
2023-02-23T05:05:23.817Z,99123.81
2023-02-23T05:07:50.360Z,99111.31
2023-02-23T05:10:17.056Z,99124.59
2023-02-23T05:12:43.643Z,99116.75
2023-02-23T05:15:11.142Z,99119.94
2023-02-23T05:17:42.054Z,99118.38
2023-02-23T05:20:13.780Z,99117.69
2023-02-23T05:22:40.724Z,99119.28
2023-02-23T05:25:08.769Z,99119.81
2023-02-23T05:27:35.329Z,99120.13
2023-02-23T05:30:02.637Z,99124.31
2023-02-23T05:32:29.662Z,99123.50
2023-02-23T05:34:56.532Z,99119.66
2023-02-23T05:37:23.080Z,99116.47
2023-02-23T05:39:49.763Z,99127.38
2023-02-23T05:42:16.313Z,99128.97
2023-02-23T05:44:42.856Z,99130.56
2023-02-23T05:47:09.457Z,99128.50
2023-02-23T05:49:36.096Z,99140.03
2023-02-23T05:52:02.917Z,99141.19
2023-02-23T05:54:29.460Z,99138.81
2023-02-23T05:56:55.983Z,99145.72
2023-02-23T05:59:22.516Z,99143.34
2023-02-23T06:01:49.089Z,99145.38
2023-02-23T06:04:17.273Z,99141.22
2023-02-23T06:06:43.936Z,99151.81
2023-02-23T06:09:10.567Z,99140.41
2023-02-23T06:11:37.127Z,99154.19
2023-02-23T06:14:03.711Z,99155.28
2023-02-23T06:16:30.818Z,99160.28
2023-02-23T06:18:57.373Z,99159.81
2023-02-23T06:21:25.098Z,99158.19
2023-02-23T06:23:52.464Z,99163.47
2023-02-23T06:26:19.102Z,99165.66
2023-02-23T06:28:45.637Z,99155.84
2023-02-23T06:31:12.255Z,99151.81
2023-02-23T06:33:38.890Z,99163.66
2023-02-23T06:36:05.699Z,99163.81
2023-02-23T06:38:32.338Z,99169.63
2023-02-23T06:40:58.896Z,99164.47
2023-02-23T06:43:25.423Z,99168.00
2023-02-23T06:45:52.015Z,99174.38
2023-02-23T06:48:18.544Z,99172.16
2023-02-23T06:50:45.119Z,99172.63
2023-02-23T06:53:11.648Z,99172.28
2023-02-23T06:55:38.220Z,99176.44
2023-02-23T06:58:07.202Z,99176.84
2023-02-23T07:00:33.949Z,99184.72
2023-02-23T07:03:00.505Z,99185.72
2023-02-23T07:05:27.363Z,99189.69
2023-02-23T07:07:53.996Z,99184.41
2023-02-23T07:10:20.867Z,99186.22
2023-02-23T07:12:47.411Z,99188.78
2023-02-23T07:15:17.785Z,99184.94
2023-02-23T07:17:46.144Z,99193.91
2023-02-23T07:20:13.185Z,99195.13
2023-02-23T07:22:40.046Z,99193.94
2023-02-23T07:25:07.424Z,99187.63
2023-02-23T07:27:34.508Z,99188.22
2023-02-23T07:30:03.405Z,99189.47
2023-02-23T07:32:30.357Z,99192.47
2023-02-23T07:34:56.928Z,99191.03
2023-02-23T07:37:23.457Z,99192.78
2023-02-23T07:39:50.053Z,99189.38
2023-02-23T07:42:16.591Z,99193.03
2023-02-23T07:44:43.101Z,99189.66
2023-02-23T07:47:09.665Z,99186.94
2023-02-23T07:49:36.210Z,99191.97
2023-02-23T07:52:03.003Z,99197.88
2023-02-23T07:54:29.516Z,99193.19
2023-02-23T07:56:56.315Z,99194.31
2023-02-23T07:59:22.940Z,99199.66
2023-02-23T08:01:49.441Z,99201.00
2023-02-23T08:04:16.055Z,99201.22
2023-02-23T08:06:42.616Z,99198.63
2023-02-23T08:09:10.683Z,99204.78
2023-02-23T08:11:37.731Z,99202.25
2023-02-23T08:14:04.300Z,99203.00
2023-02-23T08:16:32.890Z,99201.38
2023-02-23T08:19:00.852Z,99203.31
2023-02-23T08:21:29.508Z,99207.50
2023-02-23T08:23:57.464Z,99209.47
2023-02-23T08:26:25.402Z,99208.25
2023-02-23T08:28:53.117Z,99214.19
2023-02-23T08:31:22.874Z,99219.19
2023-02-23T08:33:50.024Z,99210.94
2023-02-23T08:36:16.664Z,99221.91
2023-02-23T08:38:43.343Z,99218.09
2023-02-23T08:41:09.940Z,99216.72
2023-02-23T08:43:37.472Z,99218.03
2023-02-23T08:46:04.123Z,99219.59
2023-02-23T08:48:30.709Z,99206.50
2023-02-23T08:50:58.890Z,99215.44
2023-02-23T08:53:29.642Z,99213.34
2023-02-23T08:55:58.478Z,99220.34
2023-02-23T08:58:25.117Z,99213.34
2023-02-23T09:00:51.751Z,99222.63
2023-02-23T09:03:18.324Z,99214.69
2023-02-23T09:05:45.203Z,99228.53
2023-02-23T09:08:13.760Z,99224.88
2023-02-23T09:10:40.892Z,99223.94
2023-02-23T09:13:07.426Z,99225.88
2023-02-23T09:15:34.065Z,99224.13
2023-02-23T09:18:03.528Z,99218.34
2023-02-23T09:20:30.304Z,99221.84
2023-02-23T09:22:56.872Z,99221.13
2023-02-23T09:25:23.871Z,99219.16
2023-02-23T09:27:53.751Z,99226.75
2023-02-23T09:30:22.229Z,99227.66
2023-02-23T09:32:50.270Z,99222.97
2023-02-23T09:35:18.623Z,99229.72
2023-02-23T09:37:47.817Z,99233.19
2023-02-23T09:40:24.085Z,99228.88
2023-02-23T09:43:09.124Z,99234.56
2023-02-23T09:45:43.753Z,99231.06
2023-02-23T09:48:16.791Z,99231.63
2023-02-23T09:50:55.132Z,99228.78
2023-02-23T09:53:29.251Z,99221.19
2023-02-23T09:55:58.520Z,99224.09
2023-02-23T09:58:30.924Z,99223.03
2023-02-23T10:01:25.510Z,99222.84
2023-02-23T10:04:32.444Z,99225.13
2023-02-23T10:06:59.232Z,99221.34
2023-02-23T10:09:31.879Z,99222.66
2023-02-23T10:12:13.612Z,99219.91
2023-02-23T10:14:55.557Z,99218.31
2023-02-23T10:17:42.592Z,99216.72
2023-02-23T10:20:24.840Z,99217.72
2023-02-23T10:22:52.639Z,99215.75
2023-02-23T10:25:27.174Z,99220.00
2023-02-23T10:27:55.765Z,99217.78
2023-02-23T10:30:32.285Z,99212.03
2023-02-23T10:33:13.627Z,99211.97
2023-02-23T10:35:40.428Z,99207.88
2023-02-23T10:38:14.548Z,99203.66
2023-02-23T10:40:41.771Z,99211.34
2023-02-23T10:43:12.605Z,99199.78
2023-02-23T10:45:47.305Z,99201.34
2023-02-23T10:48:31.900Z,99206.50
2023-02-23T10:51:02.866Z,99204.16
2023-02-23T10:53:37.690Z,99190.69
2023-02-23T10:56:13.897Z,99192.44
2023-02-23T10:58:46.432Z,99189.69
2023-02-23T11:01:16.759Z,99187.22
2023-02-23T11:04:05.354Z,99173.13
2023-02-23T11:06:39.613Z,99179.88
2023-02-23T11:09:44.548Z,99167.78
2023-02-23T11:12:36.684Z,99163.25
2023-02-23T11:15:35.249Z,99159.78
2023-02-23T11:18:06.856Z,99158.53
2023-02-23T11:20:44.345Z,99155.53
2023-02-23T11:23:31.373Z,99151.09
2023-02-23T11:26:01.647Z,99148.88
2023-02-23T11:28:37.332Z,99150.59
2023-02-23T11:31:29.345Z,99143.06
2023-02-23T11:33:57.401Z,99148.28
2023-02-23T11:36:23.878Z,99143.81
2023-02-23T11:39:16.246Z,99145.16
2023-02-23T11:41:42.826Z,99140.59
2023-02-23T11:44:22.569Z,99128.22
2023-02-23T11:46:50.933Z,99119.06
2023-02-23T11:49:27.482Z,99122.16
2023-02-23T11:51:54.827Z,99117.19
2023-02-23T11:54:33.467Z,99120.63
2023-02-23T11:57:02.702Z,99113.69
2023-02-23T11:59:29.902Z,99110.09
2023-02-23T12:02:23.124Z,99108.28
2023-02-23T12:05:06.250Z,99111.34
2023-02-23T12:07:44.912Z,99095.94
2023-02-23T12:10:46.336Z,99088.31
2023-02-23T12:13:26.555Z,99081.88
2023-02-23T12:16:11.869Z,99091.66
2023-02-23T12:19:00.612Z,99083.41
2023-02-23T12:21:45.224Z,99074.75
2023-02-23T12:24:43.619Z,99075.22
2023-02-23T12:27:15.960Z,99073.34
2023-02-23T12:30:12.031Z,99071.06
2023-02-23T12:32:55.123Z,99064.94
2023-02-23T12:35:31.413Z,99068.19
2023-02-23T12:38:12.053Z,99066.56
2023-02-23T12:40:42.171Z,99068.06
2023-02-23T12:43:19.683Z,99063.25
2023-02-23T12:45:53.399Z,99060.81
2023-02-23T12:48:31.698Z,99067.91
2023-02-23T12:51:02.208Z,99063.78
2023-02-23T12:53:34.116Z,99056.66
2023-02-23T12:56:04.407Z,99057.06
2023-02-23T12:58:53.551Z,99057.25
2023-02-23T13:01:29.678Z,99054.63
2023-02-23T13:04:26.417Z,99053.28
2023-02-23T13:07:06.689Z,99054.09
2023-02-23T13:09:33.138Z,99054.19
2023-02-23T13:12:14.751Z,99054.84
2023-02-23T13:15:21.494Z,99057.34
2023-02-23T13:18:11.639Z,99065.59
2023-02-23T13:20:40.770Z,99053.56
2023-02-23T13:23:26.604Z,99058.38
2023-02-23T13:26:31.162Z,99053.25
2023-02-23T13:29:15.184Z,99044.84
2023-02-23T13:31:43.466Z,99049.25
2023-02-23T13:34:17.175Z,99048.19
2023-02-23T13:36:45.896Z,99053.44
2023-02-23T13:39:34.009Z,99051.19
2023-02-23T13:42:28.081Z,99046.56
2023-02-23T13:45:27.716Z,99048.28
2023-02-23T13:48:04.704Z,99050.72
2023-02-23T13:50:53.127Z,99057.47
2023-02-23T13:53:51.753Z,99051.56
2023-02-23T13:56:22.440Z,99051.56
2023-02-23T13:58:58.472Z,99045.22
2023-02-23T14:01:32.960Z,99052.38
2023-02-23T14:04:03.038Z,99046.00
2023-02-23T14:06:32.786Z,99050.78
2023-02-23T14:09:18.307Z,99044.44
2023-02-23T14:11:49.613Z,99043.63
2023-02-23T14:14:37.179Z,99040.47
2023-02-23T14:17:14.051Z,99044.44
2023-02-23T14:20:06.701Z,99030.16
2023-02-23T14:22:34.749Z,99041.22
2023-02-23T14:25:32.266Z,99040.84
2023-02-23T14:28:23.048Z,99040.03
2023-02-23T14:31:03.424Z,99046.78
2023-02-23T14:33:42.110Z,99050.72
2023-02-23T14:36:33.367Z,99044.38
2023-02-23T14:39:09.123Z,99043.59
2023-02-23T14:41:52.696Z,99049.91
2023-02-23T14:44:31.768Z,99045.19
2023-02-23T14:47:08.950Z,99041.59
2023-02-23T14:49:43.586Z,99044.72
2023-02-23T14:52:19.745Z,99044.31
2023-02-23T14:54:46.889Z,99049.81
2023-02-23T14:57:19.735Z,99046.22
2023-02-23T14:59:52.719Z,99043.78
2023-02-23T15:02:24.322Z,99047.28
2023-02-23T15:04:51.292Z,99041.34
2023-02-23T15:07:31.006Z,99043.22
2023-02-23T15:09:59.891Z,99031.72
2023-02-23T15:12:29.918Z,99039.25
2023-02-23T15:15:00.262Z,99038.44
2023-02-23T15:17:32.912Z,99036.78
2023-02-23T15:20:15.987Z,99033.94
2023-02-23T15:22:46.803Z,99032.31
2023-02-23T15:25:26.245Z,99034.59
2023-02-23T15:27:53.177Z,99038.06
2023-02-23T15:30:40.209Z,99044.38
2023-02-23T15:33:14.322Z,99047.44
2023-02-23T15:36:08.628Z,99048.56
2023-02-23T15:38:50.753Z,99044.59
2023-02-23T15:41:34.639Z,99043.31
2023-02-23T15:44:13.436Z,99049.47
2023-02-23T15:46:41.560Z,99042.78
2023-02-23T15:49:12.473Z,99046.66
2023-02-23T15:51:48.630Z,99037.53
2023-02-23T15:54:29.712Z,99046.53
2023-02-23T15:56:58.792Z,99040.53
2023-02-23T15:59:31.181Z,99040.31
2023-02-23T16:01:59.789Z,99047.38
2023-02-23T16:04:32.515Z,99039.50
2023-02-23T16:07:15.402Z,99041.06
2023-02-23T16:09:53.168Z,99039.25
2023-02-23T16:12:29.234Z,99034.81
2023-02-23T16:14:59.725Z,99041.31
2023-02-23T16:17:28.119Z,99045.94
2023-02-23T16:20:11.325Z,99038.41
2023-02-23T16:22:40.014Z,99033.13
2023-02-23T16:25:11.534Z,99040.66
2023-02-23T16:27:38.602Z,99032.25
2023-02-23T16:30:23.524Z,99025.91
2023-02-23T16:33:40.856Z,99035.78
2023-02-23T16:36:10.068Z,99034.91
2023-02-23T16:38:48.806Z,99037.22
2023-02-23T16:41:22.907Z,99034.34
2023-02-23T16:43:51.550Z,99038.22
2023-02-23T16:46:19.365Z,99031.19
2023-02-23T16:48:46.398Z,99033.19
2023-02-23T16:51:18.471Z,99033.56
2023-02-23T16:53:45.670Z,99042.56
2023-02-23T16:56:22.789Z,99045.31
2023-02-23T16:58:56.052Z,99040.63
2023-02-23T17:01:23.114Z,99048.44
2023-02-23T17:03:53.193Z,99043.25
2023-02-23T17:06:21.434Z,99048.31
2023-02-23T17:08:57.557Z,99053.72
2023-02-23T17:11:25.406Z,99051.28
2023-02-23T17:13:51.982Z,99050.44
2023-02-23T17:16:18.863Z,99048.81
2023-02-23T17:18:45.777Z,99048.00
2023-02-23T17:21:14.383Z,99051.06
2023-02-23T17:23:51.218Z,99054.22
2023-02-23T17:26:20.621Z,99051.06
2023-02-23T17:28:47.565Z,99049.16
2023-02-23T17:31:16.257Z,99045.97
2023-02-23T17:33:43.813Z,99050.63
2023-02-23T17:36:13.393Z,99051.34
2023-02-23T17:38:44.605Z,99050.63
2023-02-23T17:41:16.192Z,99045.59
2023-02-23T17:43:43.005Z,99049.63
2023-02-23T17:46:10.560Z,99050.44
2023-02-23T17:48:37.323Z,99051.16
2023-02-23T17:51:08.343Z,99051.28
2023-02-23T17:53:36.028Z,99044.63
2023-02-23T17:56:02.679Z,99048.84
2023-02-23T17:58:29.649Z,99047.19
2023-02-23T18:00:57.692Z,99043.28
2023-02-23T18:03:25.575Z,99040.59
2023-02-23T18:05:52.863Z,99039.00
2023-02-23T18:08:20.254Z,99038.25
2023-02-23T18:10:51.944Z,99041.44
2023-02-23T18:13:19.288Z,99038.75
2023-02-23T18:15:50.097Z,99035.19
2023-02-23T18:18:17.191Z,99042.59
2023-02-23T18:21:02.785Z,99031.91
2023-02-23T18:23:32.574Z,99034.59
2023-02-23T18:26:14.532Z,99026.72
2023-02-23T18:28:44.360Z,99025.09
2023-02-23T18:31:23.988Z,99029.78
2023-02-23T18:33:52.947Z,99033.69
2023-02-23T18:36:37.595Z,99035.16
2023-02-23T18:39:07.133Z,99032.69
2023-02-23T18:41:33.874Z,99036.47
2023-02-23T18:44:03.031Z,99036.28
2023-02-23T18:46:29.754Z,99024.44
2023-02-23T18:48:56.708Z,99027.59
2023-02-23T18:51:25.106Z,99029.56
2023-02-23T18:53:53.317Z,99026.75
2023-02-23T18:56:25.150Z,99021.13
2023-02-23T18:59:01.513Z,99025.31
2023-02-23T19:01:31.189Z,99030.41
2023-02-23T19:04:01.214Z,99026.00
2023-02-23T19:06:28.688Z,99023.56
2023-02-23T19:08:59.371Z,99020.59
2023-02-23T19:11:28.612Z,99024.44
2023-02-23T19:13:56.842Z,99024.06
2023-02-23T19:16:24.824Z,99024.44
2023-02-23T19:18:52.820Z,99025.72
2023-02-23T19:21:23.442Z,99028.47
2023-02-23T19:23:54.515Z,99022.97
2023-02-23T19:26:21.396Z,99022.97
2023-02-23T19:28:48.541Z,99025.28
2023-02-23T19:31:21.093Z,99036.56
2023-02-23T19:33:49.634Z,99027.53
2023-02-23T19:36:19.888Z,99016.91
2023-02-23T19:38:47.346Z,99025.88
2023-02-23T19:41:17.457Z,99024.66
2023-02-23T19:43:44.453Z,99029.28
2023-02-23T19:46:13.680Z,99025.66
2023-02-23T19:48:41.382Z,99033.56
2023-02-23T19:51:12.432Z,99022.56
2023-02-23T19:53:39.935Z,99028.06
2023-02-23T19:56:12.314Z,99025.31
2023-02-23T19:58:39.289Z,99023.72
2023-02-23T20:01:08.012Z,99011.88
2023-02-23T20:03:35.675Z,99006.28
2023-02-23T20:06:05.769Z,99005.06
2023-02-23T20:08:32.842Z,99007.75
2023-02-23T20:11:00.478Z,99005.34
2023-02-23T20:13:27.058Z,98998.56
2023-02-23T20:16:20.581Z,99007.94
2023-02-23T20:18:47.212Z,99006.34
2023-02-23T20:21:20.079Z,99004.34
2023-02-23T20:23:47.524Z,98999.28
2023-02-23T20:26:18.649Z,99002.38
2023-02-23T20:28:45.995Z,98987.41
2023-02-23T20:31:18.242Z,98988.97
2023-02-23T20:33:44.954Z,98988.22
2023-02-23T20:36:12.189Z,98989.00
2023-02-23T20:38:39.073Z,98988.59
2023-02-23T20:41:06.188Z,98983.53
2023-02-23T20:43:32.790Z,98981.16
2023-02-23T20:46:02.887Z,98976.81
2023-02-23T20:48:34.728Z,98978.03
2023-02-23T20:51:01.877Z,98972.47
2023-02-23T20:53:29.448Z,98977.66
2023-02-23T20:55:56.318Z,98974.19
2023-02-23T20:58:26.049Z,98965.53
2023-02-23T21:00:54.702Z,98968.66
2023-02-23T21:03:21.846Z,98964.69
2023-02-23T21:05:49.071Z,98962.69
2023-02-23T21:08:15.960Z,98955.22
2023-02-23T21:10:42.558Z,98950.34
2023-02-23T21:13:12.344Z,98947.97
2023-02-23T21:15:40.502Z,98951.81
2023-02-23T21:18:07.997Z,98954.19
2023-02-23T21:20:35.387Z,98948.25
2023-02-23T21:23:04.212Z,98938.44
2023-02-23T21:25:31.028Z,98947.03
2023-02-23T21:28:01.669Z,98937.56
2023-02-23T21:30:28.690Z,98932.09
2023-02-23T21:32:59.569Z,98935.53
2023-02-23T21:35:26.326Z,98934.31
2023-02-23T21:37:52.930Z,98930.00
2023-02-23T21:40:21.090Z,98933.44
2023-02-23T21:42:49.258Z,98933.38
2023-02-23T21:45:17.166Z,98930.63
2023-02-23T21:47:45.929Z,98927.06
2023-02-23T21:50:15.663Z,98926.72
2023-02-23T21:52:43.914Z,98925.56
2023-02-23T21:55:23.461Z,98925.13
2023-02-23T21:57:50.855Z,98917.28
2023-02-23T22:00:19.065Z,98918.41
2023-02-23T22:02:46.511Z,98925.13
2023-02-23T22:05:15.240Z,98918.50
2023-02-23T22:07:46.691Z,98919.22
2023-02-23T22:10:13.262Z,98914.53
2023-02-23T22:12:39.869Z,98923.91
2023-02-23T22:15:07.203Z,98909.75
2023-02-23T22:17:34.107Z,98913.72
2023-02-23T22:20:00.979Z,98909.38
2023-02-23T22:22:27.912Z,98910.13
2023-02-23T22:24:54.517Z,98907.72
2023-02-23T22:27:22.183Z,98905.78
2023-02-23T22:29:48.912Z,98900.28
2023-02-23T22:32:17.564Z,98903.41
2023-02-23T22:34:44.317Z,98904.19
2023-02-23T22:37:11.110Z,98901.00
2023-02-23T22:39:41.634Z,98905.25
2023-02-23T22:42:12.636Z,98898.25
2023-02-23T22:44:39.297Z,98897.84
2023-02-23T22:47:06.775Z,98885.63
2023-02-23T22:49:34.728Z,98888.88
2023-02-23T22:52:01.339Z,98888.47
2023-02-23T22:54:27.951Z,98879.75
2023-02-23T22:56:54.917Z,98876.59
2023-02-23T22:59:21.524Z,98881.31
2023-02-23T23:01:50.159Z,98872.28
2023-02-23T23:04:17.244Z,98872.28
2023-02-23T23:06:44.034Z,98877.75
2023-02-23T23:09:12.330Z,98874.59
2023-02-23T23:11:41.844Z,98869.41
2023-02-23T23:14:10.345Z,98860.53
2023-02-23T23:16:48.591Z,98870.22
2023-02-23T23:19:24.773Z,98859.94
2023-02-23T23:21:56.775Z,98862.97
2023-02-23T23:24:24.749Z,98863.41
2023-02-23T23:27:00.056Z,98862.59
2023-02-23T23:29:32.398Z,98861.81
2023-02-23T23:32:01.567Z,98860.22
2023-02-23T23:34:28.347Z,98853.16
2023-02-23T23:36:55.476Z,98862.19
2023-02-23T23:39:23.581Z,98848.84
2023-02-23T23:41:50.413Z,98855.03
2023-02-23T23:44:22.707Z,98847.50
2023-02-23T23:46:53.051Z,98848.66
2023-02-23T23:49:22.964Z,98850.25
2023-02-23T23:51:52.407Z,98846.81
2023-02-23T23:54:26.886Z,98838.16
2023-02-23T23:56:53.608Z,98839.28
2023-02-23T23:59:22.803Z,98836.63
